Latest Weather Observations for Marree Airport

IDS60801

Issued at 4:05 pm CST Thursday 17 April 2014 (issued every 30 minutes, with the page automatically refreshed every 10 minutes)

About weather observations | Map of weather stations | Latest weather observations for SA | Other Formats
Station Details ID: 017126 Name: MARREE AERO Lat: -29.66 Lon: 138.07 Height: 50.0 m
Data from the previous 72 hours. | See also: Recent months for locations in South Australia
Date/Time
CST
Temp
°C
App
Temp
°C
Dew
Point
Rel
Hum
%
Delta-T
°C
Wind Press
QNH
hPa
Press
MSL
hPa
Rain
since 9 am
mm
Dir
 
Spd
km/h
Gust
km/h
Spd
kts
Gust
kts
17/04:00pm 28.5 26.8 6.0 24 11.8 SSW 4 15 2 8 1019.6 - 0.0
17/03:30pm 28.2 26.5 5.7 24 11.7 NE 4 13 2 7 1019.6 - 0.0
17/03:00pm 28.0 25.5 5.0 23 11.8 NNW 7 11 4 6 1019.8 1019.7 0.0
17/02:30pm 28.0 26.4 4.3 22 12.1 W 2 9 1 5 1019.9 - 0.0
17/02:00pm 27.4 25.3 5.6 25 11.3 ESE 6 9 3 5 1020.1 - 0.0
17/01:30pm 26.7 24.5 5.1 25 11.1 NNE 6 9 3 5 1020.4 - 0.0
17/01:00pm 26.9 24.7 5.2 25 11.1 SW 6 15 3 8 1020.8 - 0.0
17/12:30pm 26.6 24.8 5.5 26 10.9 N 4 15 2 8 1021.4 - 0.0
17/12:00pm 25.9 24.1 7.0 30 9.9 SW 6 15 3 8 1022.0 1021.9 0.0
17/11:30am 25.2 23.2 7.3 32 9.4 WNW 7 11 4 6 1022.4 - 0.0
17/11:00am 24.6 23.0 8.1 35 8.8 WNW 6 11 3 6 1022.5 - 0.0
17/10:30am 23.3 22.6 8.6 39 7.8 WSW 2 7 1 4 1022.6 - 0.0
17/10:00am 22.3 22.1 9.1 43 7.1 CALM 0 4 0 2 1022.7 - 0.0
17/09:30am 21.0 19.8 10.2 50 5.9 SE 7 11 4 6 1022.6 - 0.0
17/09:00am 19.3 17.6 10.0 55 5.0 SE 9 11 5 6 1022.7 1022.6 0.0
17/08:30am 17.7 15.3 10.1 61 4.0 SSE 13 15 7 8 1022.6 - 0.0
17/08:00am 16.0 13.9 9.9 67 3.2 SSE 11 13 6 7 1022.1 - 0.0
17/07:30am 14.2 11.6 9.2 72 2.6 SSE 13 15 7 8 1021.7 - 0.0
17/07:00am 13.1 10.1 9.2 77 2.0 SSE 15 17 8 9 1021.3 - 0.0
17/06:30am 12.2 9.1 8.9 80 1.7 SSE 15 17 8 9 1021.1 - 0.0
17/06:00am 11.8 8.6 8.3 79 1.7 SSE 15 15 8 8 1020.8 1020.7 0.0
17/05:30am 12.2 9.1 8.7 79 1.7 SSE 15 15 8 8 1020.5 - 0.0
17/05:00am 12.2 9.1 8.7 79 1.7 SSE 15 15 8 8 1020.4 - 0.0
17/04:30am 13.5 10.5 9.4 76 2.1 S 15 17 8 9 1020.2 - 0.0
17/04:00am 13.1 10.5 9.4 78 1.9 S 13 15 7 8 1020.1 - 0.0
17/03:30am 13.2 11.0 9.5 78 1.9 S 11 13 6 7 1020.0 - 0.0
17/03:00am 12.7 10.7 8.8 77 2.0 SSE 9 11 5 6 1020.0 1019.9 0.0
17/02:30am 13.0 10.6 8.7 75 2.2 ESE 11 13 6 7 1020.0 - 0.0
17/02:00am 13.7 11.1 9.2 74 2.3 SE 13 19 7 10 1020.3 - 0.0
17/01:30am 14.1 11.4 9.1 72 2.5 SSE 13 15 7 8 1020.4 - 0.0
17/01:00am 14.2 12.0 9.2 72 2.6 SE 11 13 6 7 1020.5 - 0.0
17/12:30am 14.8 12.5 9.0 68 3.0 SE 11 13 6 7 1020.5 - 0.0
17/12:00am 16.0 14.1 9.0 63 3.6 S 9 13 5 7 1020.5 1020.4 0.0
 
Date/Time
CST
Temp
°C
App
Temp
°C
Dew
Point
Rel
Hum
%
Delta-T
°C
Wind Press
QNH
hPa
Press
MSL
hPa
Rain
since 9 am
mm
Dir
 
Spd
km/h
Gust
km/h
Spd
kts
Gust
kts
16/11:30pm 16.6 13.9 9.1 61 3.9 S 13 15 7 8 1020.6 - 0.0
16/11:00pm 17.0 13.6 9.2 60 4.1 S 17 17 9 9 1020.8 - 0.0
16/10:30pm 17.5 14.9 9.2 58 4.3 S 13 15 7 8 1020.9 - 0.0
16/10:00pm 17.4 14.7 9.1 58 4.3 S 13 15 7 8 1020.9 - 0.0
16/09:30pm 18.3 15.9 8.8 54 4.9 S 11 15 6 8 1020.8 - 0.0
16/09:00pm 19.0 15.8 8.6 51 5.4 S 15 17 8 9 1020.6 1020.5 0.0
16/08:30pm 19.2 16.4 8.5 50 5.6 SSW 13 15 7 8 1020.4 - 0.0
16/08:00pm 20.3 16.6 8.0 45 6.4 SSW 17 19 9 10 1020.2 - 0.0
16/07:30pm 20.8 17.4 7.8 43 6.7 SSW 15 17 8 9 1019.9 - 0.0
16/07:00pm 21.9 18.0 7.3 39 7.5 SSW 17 17 9 9 1019.5 - 0.0
16/06:30pm 23.5 19.7 7.6 36 8.3 SSW 17 20 9 11 1019.2 - 0.0
16/06:00pm 24.4 20.8 6.6 32 9.2 SSW 15 19 8 10 1018.9 1018.8 0.0
16/05:30pm 25.8 21.3 5.9 28 10.3 SSW 19 22 10 12 1018.6 - 0.0
16/05:00pm 26.4 23.0 5.9 27 10.6 SSW 13 17 7 9 1018.4 - 0.0
16/04:30pm 26.7 23.0 6.2 27 10.7 SSW 15 20 8 11 1018.0 - 0.0
16/04:00pm 27.2 24.7 6.6 27 10.9 SW 9 17 5 9 1018.1 - 0.0
16/03:30pm 26.6 24.1 6.6 28 10.5 S 9 15 5 8 1018.2 - 0.0
16/03:00pm 27.0 25.1 6.9 28 10.6 NNE 6 9 3 5 1018.5 1018.4 0.0
16/02:30pm 26.7 25.0 7.7 30 10.2 NNW 6 17 3 9 1018.9 - 0.0
16/02:00pm 26.5 24.0 8.0 31 10.0 W 11 20 6 11 1019.2 - 0.0
16/01:30pm 25.4 23.5 6.6 30 9.8 SE 6 13 3 7 1019.5 - 0.0
16/01:00pm 25.5 22.7 7.1 31 9.7 W 11 17 6 9 1019.8 - 0.0
16/12:30pm 24.8 22.1 7.4 33 9.2 WSW 11 20 6 11 1020.3 - 0.0
16/12:00pm 24.7 23.0 7.4 33 9.1 S 6 11 3 6 1020.8 1020.7 0.0
16/11:30am 24.9 24.1 8.0 34 9.0 ENE 2 7 1 4 1021.1 - 0.0
16/11:00am 24.2 22.6 7.8 35 8.7 E 6 11 3 6 1021.4 - 0.0
16/10:30am 23.3 21.5 9.3 41 7.6 ENE 9 15 5 8 1021.6 - 0.0
16/10:00am 22.0 20.0 10.2 47 6.4 ESE 11 15 6 8 1021.9 - 0.0
16/09:30am 21.0 18.7 10.5 51 5.7 SE 13 20 7 11 1022.0 - 0.0
16/09:00am 19.4 16.6 10.1 55 5.0 SSE 15 19 8 10 1022.1 1022.0 0.0
16/08:30am 18.2 15.6 10.8 62 4.0 SSE 15 17 8 9 1022.1 - 0.0
16/08:00am 16.3 14.1 10.8 70 2.9 SSE 13 17 7 9 1021.8 - 0.0
16/07:30am 14.3 12.0 10.3 77 2.1 SSE 13 15 7 8 1021.4 - 0.0
16/07:00am 12.8 10.3 9.8 82 1.5 SSE 13 15 7 8 1021.0 - 0.0
16/06:30am 12.8 9.5 9.6 81 1.6 SSE 17 19 9 10 1020.7 - 0.0
16/06:00am 12.4 9.4 9.4 82 1.5 SSE 15 15 8 8 1020.5 1020.4 0.0
16/05:30am 12.8 9.9 9.6 81 1.6 SSE 15 17 8 9 1020.2 - 0.0
16/05:00am 13.5 11.0 9.7 78 2.0 SSE 13 15 7 8 1020.1 - 0.0
16/04:30am 14.3 12.6 9.9 75 2.3 S 9 11 5 6 1019.9 - 0.0
16/04:00am 13.9 11.8 9.7 76 2.2 S 11 13 6 7 1019.7 - 0.0
16/03:30am 14.5 12.9 10.1 75 2.3 S 9 13 5 7 1019.5 - 0.0
16/03:00am 14.8 12.1 10.4 75 2.3 S 15 15 8 8 1019.5 1019.4 0.0
16/02:30am 14.3 11.5 10.1 76 2.2 S 15 15 8 8 1019.5 - 0.0
16/02:00am 14.5 12.1 10.1 75 2.3 SSE 13 15 7 8 1019.8 - 0.0
16/01:30am 14.8 12.0 10.0 73 2.5 SSE 15 15 8 8 1020.2 - 0.0
16/01:00am 15.5 13.1 10.1 70 2.8 S 13 13 7 7 1020.4 - 0.0
16/12:30am 16.3 13.9 10.2 67 3.2 S 13 15 7 8 1020.4 - 0.0
16/12:00am 16.3 13.5 9.9 66 3.3 S 15 15 8 8 1020.4 1020.3 0.0
 
Date/Time
CST
Temp
°C
App
Temp
°C
Dew
Point
Rel
Hum
%
Delta-T
°C
Wind Press
QNH
hPa
Press
MSL
hPa
Rain
since 9 am
mm
Dir
 
Spd
km/h
Gust
km/h
Spd
kts
Gust
kts
15/11:30pm 16.7 14.3 9.9 64 3.6 S 13 15 7 8 1020.6 - 0.0
15/11:00pm 16.9 14.0 9.8 63 3.7 S 15 15 8 8 1020.7 - 0.0
15/10:30pm 17.7 15.2 9.8 60 4.2 S 13 15 7 8 1020.9 - 0.0
15/10:00pm 18.1 15.5 9.5 57 4.5 SSE 13 17 7 9 1020.8 - 0.0
15/09:30pm 19.6 15.9 9.5 52 5.4 S 19 24 10 13 1020.6 - 0.0
15/09:00pm 20.1 17.2 9.7 51 5.5 S 15 20 8 11 1020.3 1020.2 0.0
15/08:30pm 20.5 17.7 10.0 51 5.7 SSW 15 19 8 10 1020.0 - 0.0
15/08:00pm 20.6 17.9 10.4 52 5.5 SSW 15 17 8 9 1019.8 - 0.0
15/07:30pm 21.8 18.3 10.3 48 6.3 SSW 19 22 10 12 1019.5 - 0.0
15/07:00pm 22.1 20.7 9.6 45 6.8 SSE 7 9 4 5 1019.1 - 0.0
15/06:30pm 22.4 20.5 8.9 42 7.2 SE 9 13 5 7 1018.6 - 0.0
15/06:00pm 23.8 21.3 8.2 37 8.3 SE 11 13 6 7 1018.4 1018.3 0.0
15/05:30pm 25.1 22.0 7.3 32 9.4 SE 13 15 7 8 1018.2 - 0.0
15/05:00pm 25.5 21.8 6.2 29 10.0 SE 15 28 8 15 1018.6 - 0.0
15/04:30pm 25.6 21.9 6.3 29 10.0 SE 15 22 8 12 1018.4 - 0.0
15/04:00pm 25.7 23.1 6.3 29 10.1 SSE 9 17 5 9 1018.3 - 0.0
15/03:30pm 26.0 22.5 5.6 27 10.5 SSW 13 20 7 11 1018.3 - 0.0
15/03:00pm 25.9 22.7 7.0 30 9.9 S 13 19 7 10 1018.4 1018.3 0.0
15/02:30pm 26.3 23.6 7.4 30 10.0 SSW 11 20 6 11 1018.7 - 0.0
15/02:00pm 25.7 23.1 7.8 32 9.6 SSW 11 22 6 12 1018.8 - 0.0
15/01:30pm 25.1 22.5 7.7 33 9.2 SSE 11 17 6 9 1019.1 - 0.0
15/01:00pm 24.9 22.2 7.5 33 9.2 SE 11 19 6 10 1019.3 - 0.0
15/12:30pm 25.0 21.1 8.5 35 8.9 SE 19 30 10 16 1019.7 - 0.0
15/12:00pm 24.1 20.5 8.5 37 8.3 ESE 17 24 9 13 1020.2 1020.1 0.0
15/11:30am 23.8 21.3 9.8 41 7.7 SSE 13 30 7 16 1020.6 - 0.0
15/11:00am 23.5 20.9 10.6 44 7.1 SE 15 20 8 11 1020.9 - 0.0
15/10:30am 22.5 19.5 10.6 47 6.6 SE 17 22 9 12 1021.1 - 0.0
15/10:00am 21.5 17.8 10.3 49 6.1 SE 20 24 11 13 1021.2 - 0.0
15/09:30am 20.5 16.5 10.3 52 5.5 SE 22 30 12 16 1021.5 - 0.0
15/09:00am 20.0 16.0 10.4 54 5.2 SSE 22 28 12 15 1021.5 1021.4 0.0
15/08:30am 18.9 15.0 10.7 59 4.4 SSE 22 26 12 14 1021.4 - 0.0
15/08:00am 17.5 14.1 11.1 66 3.5 S 20 26 11 14 1021.2 - 0.0
15/07:30am 16.1 12.7 11.1 72 2.7 S 20 24 11 13 1020.7 - 0.0
15/07:00am 15.2 11.4 11.2 77 2.1 S 22 26 12 14 1020.2 - 0.0
15/06:30am 14.9 11.1 11.1 78 2.0 S 22 26 12 14 1019.8 - 0.0
15/06:00am 14.9 11.5 11.3 79 1.9 S 20 24 11 13 1019.7 1019.6 0.0
15/05:30am 13.9 11.0 10.9 82 1.6 S 17 20 9 11 1019.6 - 0.0
15/05:00am 13.8 10.5 10.8 82 1.6 SSE 19 20 10 11 1019.4 - 0.0
15/04:30am 14.1 11.3 11.3 83 1.5 SSE 17 20 9 11 1019.2 - 0.0
15/04:00am 14.0 11.1 11.0 82 1.6 SSE 17 19 9 10 1019.0 - 0.0
15/03:30am 14.2 11.6 10.8 80 1.8 SSE 15 17 8 9 1019.0 - 0.0
15/03:00am 14.7 12.2 10.9 78 2.0 S 15 17 8 9 1019.0 1018.9 0.0
15/02:30am 14.0 12.2 11.0 82 1.6 SSE 11 13 6 7 1019.1 - 0.0
15/02:00am 14.5 12.8 11.1 80 1.8 SSE 11 11 6 6 1019.1 - 0.0
15/01:30am 15.4 13.6 11.0 75 2.3 SSE 11 15 6 8 1019.3 - 0.0
15/01:00am 16.1 14.4 11.1 72 2.7 S 11 13 6 7 1019.4 - 0.0
15/12:30am 16.9 14.8 11.2 69 3.1 S 13 15 7 8 1019.3 - 0.0
15/12:00am 16.7 15.1 11.4 71 2.9 S 11 15 6 8 1019.3 1019.2 0.0
 
Date/Time
CST
Temp
°C
App
Temp
°C
Dew
Point
Rel
Hum
%
Delta-T
°C
Wind Press
QNH
hPa
Press
MSL
hPa
Rain
since 9 am
mm
Dir
 
Spd
km/h
Gust
km/h
Spd
kts
Gust
kts
14/11:30pm 17.4 15.4 11.4 68 3.3 S 13 15 7 8 1019.6 - 0.0
14/11:00pm 17.9 16.2 11.2 65 3.6 S 11 13 6 7 1019.6 - 0.0
14/10:30pm 18.6 16.1 11.2 62 4.0 S 15 17 8 9 1019.7 - 0.0
14/10:00pm 19.4 16.6 11.4 60 4.4 S 17 20 9 11 1019.8 - 0.0
14/09:30pm 19.9 16.8 11.7 59 4.5 S 19 22 10 12 1019.8 - 0.0
14/09:00pm 20.6 16.9 11.5 56 5.0 S 22 26 12 14 1019.7 1019.6 0.0
14/08:30pm 21.0 17.3 11.6 55 5.2 S 22 26 12 14 1019.3 - 0.0
14/08:00pm 21.4 18.2 12.0 55 5.3 S 20 26 11 14 1019.1 - 0.0
14/07:30pm 22.0 18.8 12.0 53 5.6 S 20 28 11 15 1018.7 - 0.0
14/07:00pm 22.6 19.6 12.0 51 6.0 S 19 22 10 12 1018.3 - 0.0
14/06:30pm 23.5 20.2 10.9 45 7.0 S 19 22 10 12 1018.0 - 0.0
14/06:00pm 24.3 20.2 10.2 41 7.8 S 22 26 12 14 1017.6 1017.5 0.0
14/05:30pm 25.2 22.0 9.9 38 8.4 S 17 24 9 13 1017.3 - 0.0
14/05:00pm 25.7 21.5 9.9 37 8.7 SSW 22 30 12 16 1016.9 - 0.0
14/04:30pm 25.9 22.4 10.1 37 8.8 S 19 26 10 14 1016.9 - 0.0

Other Formats:

Comma delimited format used in spreadsheet applications
http://www.bom.gov.au/fwo/IDS60801/IDS60801.95480.axf

JavaScript Object Notation format (JSON) in row-major order
http://www.bom.gov.au/fwo/IDS60801/IDS60801.95480.json